sensor_id;sensor_type;location;lat;lon;timestamp;temperature;humidity
14277;DHT22;7222;57.346;12.150;2023-06-14T00:00:46;13.40;1.00
14277;DHT22;7222;57.346;12.150;2023-06-14T00:03:14;13.30;1.00
14277;DHT22;7222;57.346;12.150;2023-06-14T00:05:43;13.20;1.00
14277;DHT22;7222;57.346;12.150;2023-06-14T00:08:11;13.10;1.00
14277;DHT22;7222;57.346;12.150;2023-06-14T00:10:40;13.10;1.00
14277;DHT22;7222;57.346;12.150;2023-06-14T00:13:08;13.00;1.00
14277;DHT22;7222;57.346;12.150;2023-06-14T00:15:35;13.00;1.00
14277;DHT22;7222;57.346;12.150;2023-06-14T00:18:02;12.90;12.90
14277;DHT22;7222;57.346;12.150;2023-06-14T00:20:31;12.90;12.40
14277;DHT22;7222;57.346;12.150;2023-06-14T00:22:59;12.80;24.80
14277;DHT22;7222;57.346;12.150;2023-06-14T00:25:26;12.80;12.80
14277;DHT22;7222;57.346;12.150;2023-06-14T00:27:54;12.70;25.50
14277;DHT22;7222;57.346;12.150;2023-06-14T00:30:22;12.60;21.60
14277;DHT22;7222;57.346;12.150;2023-06-14T00:32:49;12.60;47.70
14277;DHT22;7222;57.346;12.150;2023-06-14T00:35:16;12.50;52.30
14277;DHT22;7222;57.346;12.150;2023-06-14T00:37:44;12.50;83.60
14277;DHT22;7222;57.346;12.150;2023-06-14T00:40:11;12.40;48.50
14277;DHT22;7222;57.346;12.150;2023-06-14T00:42:38;12.40;99.90
14277;DHT22;7222;57.346;12.150;2023-06-14T00:45:07;12.30;99.90
14277;DHT22;7222;57.346;12.150;2023-06-14T00:47:35;12.30;99.90
14277;DHT22;7222;57.346;12.150;2023-06-14T00:50:07;12.30;99.90
14277;DHT22;7222;57.346;12.150;2023-06-14T00:52:34;12.20;99.90
14277;DHT22;7222;57.346;12.150;2023-06-14T00:55:02;12.20;99.90
14277;DHT22;7222;57.346;12.150;2023-06-14T00:57:29;12.10;99.90
14277;DHT22;7222;57.346;12.150;2023-06-14T00:59:56;12.10;99.90
14277;DHT22;7222;57.346;12.150;2023-06-14T01:02:24;12.10;99.90
14277;DHT22;7222;57.346;12.150;2023-06-14T01:04:52;12.00;99.90
14277;DHT22;7222;57.346;12.150;2023-06-14T01:07:27;12.00;1.00
14277;DHT22;7222;57.346;12.150;2023-06-14T01:10:08;11.90;1.00
14277;DHT22;7222;57.346;12.150;2023-06-14T01:12:40;11.90;99.90
14277;DHT22;7222;57.346;12.150;2023-06-14T01:15:09;11.80;1.00
14277;DHT22;7222;57.346;12.150;2023-06-14T01:17:39;11.80;1.00
14277;DHT22;7222;57.346;12.150;2023-06-14T01:20:10;11.80;1.00
14277;DHT22;7222;57.346;12.150;2023-06-14T01:22:50;11.80;1.00
14277;DHT22;7222;57.346;12.150;2023-06-14T01:25:17;11.70;1.00
14277;DHT22;7222;57.346;12.150;2023-06-14T01:27:47;11.70;1.00
14277;DHT22;7222;57.346;12.150;2023-06-14T01:30:15;11.70;1.00
14277;DHT22;7222;57.346;12.150;2023-06-14T01:32:44;11.70;1.00
14277;DHT22;7222;57.346;12.150;2023-06-14T01:35:11;11.70;1.00
14277;DHT22;7222;57.346;12.150;2023-06-14T01:37:40;11.60;1.00
14277;DHT22;7222;57.346;12.150;2023-06-14T01:40:12;11.60;1.00
14277;DHT22;7222;57.346;12.150;2023-06-14T01:42:41;11.60;1.00
14277;DHT22;7222;57.346;12.150;2023-06-14T01:45:09;11.60;1.00
14277;DHT22;7222;57.346;12.150;2023-06-14T01:47:36;11.50;1.00
14277;DHT22;7222;57.346;12.150;2023-06-14T01:50:04;11.50;1.00
14277;DHT22;7222;57.346;12.150;2023-06-14T01:52:31;11.50;1.00
14277;DHT22;7222;57.346;12.150;2023-06-14T01:54:58;11.40;1.00
14277;DHT22;7222;57.346;12.150;2023-06-14T01:57:31;11.40;1.00
14277;DHT22;7222;57.346;12.150;2023-06-14T01:59:58;11.30;1.00
14277;DHT22;7222;57.346;12.150;2023-06-14T02:02:26;11.30;4.70
14277;DHT22;7222;57.346;12.150;2023-06-14T02:04:53;11.20;8.40
14277;DHT22;7222;57.346;12.150;2023-06-14T02:07:22;11.10;99.90
14277;DHT22;7222;57.346;12.150;2023-06-14T02:09:50;11.10;99.90
14277;DHT22;7222;57.346;12.150;2023-06-14T02:12:17;11.00;99.90
14277;DHT22;7222;57.346;12.150;2023-06-14T02:14:45;11.00;99.90
14277;DHT22;7222;57.346;12.150;2023-06-14T02:17:12;11.00;99.90
14277;DHT22;7222;57.346;12.150;2023-06-14T02:19:39;11.00;99.90
14277;DHT22;7222;57.346;12.150;2023-06-14T02:22:06;11.00;1.00
14277;DHT22;7222;57.346;12.150;2023-06-14T02:24:33;10.90;99.90
14277;DHT22;7222;57.346;12.150;2023-06-14T02:27:01;10.90;99.90
14277;DHT22;7222;57.346;12.150;2023-06-14T02:29:29;10.80;99.90
14277;DHT22;7222;57.346;12.150;2023-06-14T02:31:57;10.80;99.90
14277;DHT22;7222;57.346;12.150;2023-06-14T02:34:24;10.80;99.90
14277;DHT22;7222;57.346;12.150;2023-06-14T02:36:51;10.80;99.90
14277;DHT22;7222;57.346;12.150;2023-06-14T02:39:18;10.80;1.00
14277;DHT22;7222;57.346;12.150;2023-06-14T02:41:46;10.80;1.00
14277;DHT22;7222;57.346;12.150;2023-06-14T02:44:13;10.80;99.90
14277;DHT22;7222;57.346;12.150;2023-06-14T02:46:40;10.90;99.90
14277;DHT22;7222;57.346;12.150;2023-06-14T02:49:10;11.00;99.90
14277;DHT22;7222;57.346;12.150;2023-06-14T02:51:37;11.20;99.90
14277;DHT22;7222;57.346;12.150;2023-06-14T02:54:04;11.20;59.90
14277;DHT22;7222;57.346;12.150;2023-06-14T02:56:31;11.10;21.70
14277;DHT22;7222;57.346;12.150;2023-06-14T02:58:58;10.90;99.90
14277;DHT22;7222;57.346;12.150;2023-06-14T03:01:25;10.90;1.00
14277;DHT22;7222;57.346;12.150;2023-06-14T03:03:59;10.90;99.90
14277;DHT22;7222;57.346;12.150;2023-06-14T03:06:27;10.90;99.90
14277;DHT22;7222;57.346;12.150;2023-06-14T03:08:55;11.10;99.90
14277;DHT22;7222;57.346;12.150;2023-06-14T03:11:24;10.90;1.00
14277;DHT22;7222;57.346;12.150;2023-06-14T03:13:52;11.00;1.00
14277;DHT22;7222;57.346;12.150;2023-06-14T03:16:20;10.90;1.00
14277;DHT22;7222;57.346;12.150;2023-06-14T03:18:49;10.90;99.90
14277;DHT22;7222;57.346;12.150;2023-06-14T03:21:16;11.00;99.90
14277;DHT22;7222;57.346;12.150;2023-06-14T03:23:44;10.90;99.90
14277;DHT22;7222;57.346;12.150;2023-06-14T03:26:11;10.90;1.00
14277;DHT22;7222;57.346;12.150;2023-06-14T03:28:40;10.80;99.90
14277;DHT22;7222;57.346;12.150;2023-06-14T03:31:07;10.90;99.90
14277;DHT22;7222;57.346;12.150;2023-06-14T03:33:34;11.10;1.00
14277;DHT22;7222;57.346;12.150;2023-06-14T03:36:02;11.00;30.60
14277;DHT22;7222;57.346;12.150;2023-06-14T03:38:29;11.00;1.00
14277;DHT22;7222;57.346;12.150;2023-06-14T03:40:57;11.00;99.90
14277;DHT22;7222;57.346;12.150;2023-06-14T03:43:25;11.10;99.90
14277;DHT22;7222;57.346;12.150;2023-06-14T03:45:51;11.10;99.90
14277;DHT22;7222;57.346;12.150;2023-06-14T03:48:18;11.10;99.90
14277;DHT22;7222;57.346;12.150;2023-06-14T03:50:45;11.10;99.90
14277;DHT22;7222;57.346;12.150;2023-06-14T03:53:12;11.20;95.00
14277;DHT22;7222;57.346;12.150;2023-06-14T03:55:39;11.20;1.00
14277;DHT22;7222;57.346;12.150;2023-06-14T03:58:08;11.20;1.40
14277;DHT22;7222;57.346;12.150;2023-06-14T04:00:35;11.30;27.20
14277;DHT22;7222;57.346;12.150;2023-06-14T04:03:02;11.30;94.00
14277;DHT22;7222;57.346;12.150;2023-06-14T04:05:31;11.30;99.90
14277;DHT22;7222;57.346;12.150;2023-06-14T04:07:58;11.40;1.00
14277;DHT22;7222;57.346;12.150;2023-06-14T04:10:26;11.50;1.00
14277;DHT22;7222;57.346;12.150;2023-06-14T04:12:53;11.80;99.90
14277;DHT22;7222;57.346;12.150;2023-06-14T04:15:21;11.80;99.90
14277;DHT22;7222;57.346;12.150;2023-06-14T04:17:48;12.20;99.90
14277;DHT22;7222;57.346;12.150;2023-06-14T04:20:16;12.50;99.90
14277;DHT22;7222;57.346;12.150;2023-06-14T04:22:43;12.50;99.90
14277;DHT22;7222;57.346;12.150;2023-06-14T04:25:10;12.50;99.90
14277;DHT22;7222;57.346;12.150;2023-06-14T04:27:37;12.30;99.90
14277;DHT22;7222;57.346;12.150;2023-06-14T04:30:06;12.40;99.90
14277;DHT22;7222;57.346;12.150;2023-06-14T04:32:34;12.40;99.90
14277;DHT22;7222;57.346;12.150;2023-06-14T04:35:05;12.50;99.90
14277;DHT22;7222;57.346;12.150;2023-06-14T04:37:32;12.70;99.90
14277;DHT22;7222;57.346;12.150;2023-06-14T04:40:00;12.80;99.90
14277;DHT22;7222;57.346;12.150;2023-06-14T04:42:30;12.90;99.90
14277;DHT22;7222;57.346;12.150;2023-06-14T04:44:57;12.90;99.90
14277;DHT22;7222;57.346;12.150;2023-06-14T04:47:24;12.80;99.90
14277;DHT22;7222;57.346;12.150;2023-06-14T04:49:56;12.90;99.90
14277;DHT22;7222;57.346;12.150;2023-06-14T04:52:23;12.80;99.90
14277;DHT22;7222;57.346;12.150;2023-06-14T04:54:52;13.20;99.90
14277;DHT22;7222;57.346;12.150;2023-06-14T04:57:19;13.20;99.90
14277;DHT22;7222;57.346;12.150;2023-06-14T04:59:47;13.20;99.90
14277;DHT22;7222;57.346;12.150;2023-06-14T05:02:21;13.30;99.90
14277;DHT22;7222;57.346;12.150;2023-06-14T05:04:49;13.50;99.90
14277;DHT22;7222;57.346;12.150;2023-06-14T05:07:18;13.80;99.90
14277;DHT22;7222;57.346;12.150;2023-06-14T05:09:45;14.00;99.90
14277;DHT22;7222;57.346;12.150;2023-06-14T05:12:12;14.10;99.90
14277;DHT22;7222;57.346;12.150;2023-06-14T05:14:43;14.30;99.90
14277;DHT22;7222;57.346;12.150;2023-06-14T05:17:10;14.50;99.90
14277;DHT22;7222;57.346;12.150;2023-06-14T05:19:37;14.60;99.90
14277;DHT22;7222;57.346;12.150;2023-06-14T05:22:04;14.70;99.90
14277;DHT22;7222;57.346;12.150;2023-06-14T05:24:32;14.80;99.90
14277;DHT22;7222;57.346;12.150;2023-06-14T05:26:59;15.20;99.90
14277;DHT22;7222;57.346;12.150;2023-06-14T05:29:26;15.50;99.90
14277;DHT22;7222;57.346;12.150;2023-06-14T05:31:53;15.60;99.90
14277;DHT22;7222;57.346;12.150;2023-06-14T05:34:21;15.70;99.90
14277;DHT22;7222;57.346;12.150;2023-06-14T05:36:48;15.90;99.90
14277;DHT22;7222;57.346;12.150;2023-06-14T05:39:15;15.90;99.90
14277;DHT22;7222;57.346;12.150;2023-06-14T05:41:44;16.20;99.90
14277;DHT22;7222;57.346;12.150;2023-06-14T05:44:10;16.40;99.90
14277;DHT22;7222;57.346;12.150;2023-06-14T05:46:38;16.50;99.90
14277;DHT22;7222;57.346;12.150;2023-06-14T05:49:05;16.70;99.90
14277;DHT22;7222;57.346;12.150;2023-06-14T05:51:32;16.90;99.90
14277;DHT22;7222;57.346;12.150;2023-06-14T05:53:59;17.10;99.90
14277;DHT22;7222;57.346;12.150;2023-06-14T05:56:26;17.20;99.90
14277;DHT22;7222;57.346;12.150;2023-06-14T05:58:55;17.20;99.90
14277;DHT22;7222;57.346;12.150;2023-06-14T06:01:22;17.50;99.90
14277;DHT22;7222;57.346;12.150;2023-06-14T06:03:49;17.60;99.90
14277;DHT22;7222;57.346;12.150;2023-06-14T06:06:17;17.70;1.00
14277;DHT22;7222;57.346;12.150;2023-06-14T06:08:44;17.80;49.50
14277;DHT22;7222;57.346;12.150;2023-06-14T06:11:12;17.90;41.30
14277;DHT22;7222;57.346;12.150;2023-06-14T06:13:39;18.20;1.00
14277;DHT22;7222;57.346;12.150;2023-06-14T06:16:07;18.30;1.00
14277;DHT22;7222;57.346;12.150;2023-06-14T06:18:34;18.50;99.90
14277;DHT22;7222;57.346;12.150;2023-06-14T06:21:03;18.60;1.00
14277;DHT22;7222;57.346;12.150;2023-06-14T06:23:31;18.90;1.00
14277;DHT22;7222;57.346;12.150;2023-06-14T06:25:58;18.90;1.00
14277;DHT22;7222;57.346;12.150;2023-06-14T06:28:25;19.20;99.90
14277;DHT22;7222;57.346;12.150;2023-06-14T06:30:53;19.10;1.00
14277;DHT22;7222;57.346;12.150;2023-06-14T06:33:21;19.20;1.00
14277;DHT22;7222;57.346;12.150;2023-06-14T06:35:49;19.60;99.90
14277;DHT22;7222;57.346;12.150;2023-06-14T06:38:16;19.80;1.00
14277;DHT22;7222;57.346;12.150;2023-06-14T06:40:44;19.80;99.90
14277;DHT22;7222;57.346;12.150;2023-06-14T06:43:13;20.00;1.00
14277;DHT22;7222;57.346;12.150;2023-06-14T06:45:42;20.00;1.00
14277;DHT22;7222;57.346;12.150;2023-06-14T06:48:09;20.10;1.00
14277;DHT22;7222;57.346;12.150;2023-06-14T06:50:38;20.30;1.00
14277;DHT22;7222;57.346;12.150;2023-06-14T06:53:05;20.20;1.00
14277;DHT22;7222;57.346;12.150;2023-06-14T06:55:32;20.30;99.90
14277;DHT22;7222;57.346;12.150;2023-06-14T06:57:59;20.40;1.00
14277;DHT22;7222;57.346;12.150;2023-06-14T07:00:26;20.50;1.30
14277;DHT22;7222;57.346;12.150;2023-06-14T07:02:53;20.80;1.00
14277;DHT22;7222;57.346;12.150;2023-06-14T07:05:21;20.90;1.00
14277;DHT22;7222;57.346;12.150;2023-06-14T07:07:49;21.20;1.00
14277;DHT22;7222;57.346;12.150;2023-06-14T07:10:16;21.20;1.00
14277;DHT22;7222;57.346;12.150;2023-06-14T07:12:43;21.20;99.90
14277;DHT22;7222;57.346;12.150;2023-06-14T07:15:11;21.10;99.90
14277;DHT22;7222;57.346;12.150;2023-06-14T07:17:39;21.20;99.90
14277;DHT22;7222;57.346;12.150;2023-06-14T07:20:07;21.30;26.90
14277;DHT22;7222;57.346;12.150;2023-06-14T07:22:37;21.40;99.90
14277;DHT22;7222;57.346;12.150;2023-06-14T07:25:07;21.80;1.00
14277;DHT22;7222;57.346;12.150;2023-06-14T07:27:35;21.60;1.00
14277;DHT22;7222;57.346;12.150;2023-06-14T07:30:02;21.70;99.90
14277;DHT22;7222;57.346;12.150;2023-06-14T07:32:29;22.10;1.00
14277;DHT22;7222;57.346;12.150;2023-06-14T07:34:56;22.10;1.00
14277;DHT22;7222;57.346;12.150;2023-06-14T07:37:23;22.30;1.00
14277;DHT22;7222;57.346;12.150;2023-06-14T07:39:50;22.60;99.90
14277;DHT22;7222;57.346;12.150;2023-06-14T07:42:18;22.80;1.00
14277;DHT22;7222;57.346;12.150;2023-06-14T07:44:45;22.50;99.90
14277;DHT22;7222;57.346;12.150;2023-06-14T07:47:12;22.70;99.90
14277;DHT22;7222;57.346;12.150;2023-06-14T07:49:39;22.80;99.90
14277;DHT22;7222;57.346;12.150;2023-06-14T07:52:06;23.30;1.00
14277;DHT22;7222;57.346;12.150;2023-06-14T07:54:33;24.00;1.00
14277;DHT22;7222;57.346;12.150;2023-06-14T07:57:00;24.50;99.90
14277;DHT22;7222;57.346;12.150;2023-06-14T07:59:29;24.20;81.50
14277;DHT22;7222;57.346;12.150;2023-06-14T08:01:56;24.00;99.90
14277;DHT22;7222;57.346;12.150;2023-06-14T08:04:23;24.00;94.60
14277;DHT22;7222;57.346;12.150;2023-06-14T08:06:50;23.80;99.90
14277;DHT22;7222;57.346;12.150;2023-06-14T08:09:17;24.20;99.90
14277;DHT22;7222;57.346;12.150;2023-06-14T08:11:44;25.50;99.70
14277;DHT22;7222;57.346;12.150;2023-06-14T08:14:11;25.50;1.00
14277;DHT22;7222;57.346;12.150;2023-06-14T08:16:39;24.90;1.00
14277;DHT22;7222;57.346;12.150;2023-06-14T08:19:06;24.70;1.00
14277;DHT22;7222;57.346;12.150;2023-06-14T08:21:33;23.80;99.90
14277;DHT22;7222;57.346;12.150;2023-06-14T08:24:02;25.00;59.30
14277;DHT22;7222;57.346;12.150;2023-06-14T08:26:29;25.10;50.90
14277;DHT22;7222;57.346;12.150;2023-06-14T08:28:57;24.00;99.90
14277;DHT22;7222;57.346;12.150;2023-06-14T08:31:24;24.70;99.90
14277;DHT22;7222;57.346;12.150;2023-06-14T08:33:52;24.80;99.90
14277;DHT22;7222;57.346;12.150;2023-06-14T08:36:19;24.80;99.90
14277;DHT22;7222;57.346;12.150;2023-06-14T08:38:46;24.80;99.90
14277;DHT22;7222;57.346;12.150;2023-06-14T08:41:20;24.90;14.40
14277;DHT22;7222;57.346;12.150;2023-06-14T08:43:48;24.80;1.00
14277;DHT22;7222;57.346;12.150;2023-06-14T08:46:17;25.00;1.00
14277;DHT22;7222;57.346;12.150;2023-06-14T08:48:46;24.40;99.90
14277;DHT22;7222;57.346;12.150;2023-06-14T08:51:18;25.40;1.00
14277;DHT22;7222;57.346;12.150;2023-06-14T08:53:51;25.60;1.00
14277;DHT22;7222;57.346;12.150;2023-06-14T08:56:19;26.10;1.00
14277;DHT22;7222;57.346;12.150;2023-06-14T08:58:47;24.80;1.00
14277;DHT22;7222;57.346;12.150;2023-06-14T09:01:15;24.20;87.10
14277;DHT22;7222;57.346;12.150;2023-06-14T09:03:43;23.50;99.90
14277;DHT22;7222;57.346;12.150;2023-06-14T09:06:10;24.10;1.00
14277;DHT22;7222;57.346;12.150;2023-06-14T09:08:41;24.90;99.90
14277;DHT22;7222;57.346;12.150;2023-06-14T09:11:10;25.70;38.00
14277;DHT22;7222;57.346;12.150;2023-06-14T09:13:38;28.10;1.00
14277;DHT22;7222;57.346;12.150;2023-06-14T09:16:06;25.00;1.00
14277;DHT22;7222;57.346;12.150;2023-06-14T09:18:36;23.50;52.50
14277;DHT22;7222;57.346;12.150;2023-06-14T09:21:06;25.70;1.00
14277;DHT22;7222;57.346;12.150;2023-06-14T09:23:36;25.70;1.00
14277;DHT22;7222;57.346;12.150;2023-06-14T09:26:08;27.10;1.00
14277;DHT22;7222;57.346;12.150;2023-06-14T09:28:37;28.70;1.00
14277;DHT22;7222;57.346;12.150;2023-06-14T09:31:07;28.40;1.00
14277;DHT22;7222;57.346;12.150;2023-06-14T09:33:35;27.40;1.00
14277;DHT22;7222;57.346;12.150;2023-06-14T09:36:03;27.80;1.00
14277;DHT22;7222;57.346;12.150;2023-06-14T09:38:30;27.80;1.00
14277;DHT22;7222;57.346;12.150;2023-06-14T09:40:58;27.20;1.00
14277;DHT22;7222;57.346;12.150;2023-06-14T09:43:27;27.90;1.00
14277;DHT22;7222;57.346;12.150;2023-06-14T09:45:54;28.10;1.00
14277;DHT22;7222;57.346;12.150;2023-06-14T09:48:21;26.90;1.00
14277;DHT22;7222;57.346;12.150;2023-06-14T09:50:50;27.90;1.00
14277;DHT22;7222;57.346;12.150;2023-06-14T09:53:21;27.40;1.00
14277;DHT22;7222;57.346;12.150;2023-06-14T09:55:51;28.20;1.00
14277;DHT22;7222;57.346;12.150;2023-06-14T09:58:20;28.30;1.00
14277;DHT22;7222;57.346;12.150;2023-06-14T10:00:50;26.90;1.00
14277;DHT22;7222;57.346;12.150;2023-06-14T10:03:21;25.90;1.00
14277;DHT22;7222;57.346;12.150;2023-06-14T10:05:50;25.30;1.00
14277;DHT22;7222;57.346;12.150;2023-06-14T10:08:20;26.80;1.00
14277;DHT22;7222;57.346;12.150;2023-06-14T10:10:51;27.60;1.00
14277;DHT22;7222;57.346;12.150;2023-06-14T10:13:18;27.50;1.00
14277;DHT22;7222;57.346;12.150;2023-06-14T10:15:55;25.30;1.00
14277;DHT22;7222;57.346;12.150;2023-06-14T10:18:31;26.60;1.00
14277;DHT22;7222;57.346;12.150;2023-06-14T10:21:04;26.80;1.00
14277;DHT22;7222;57.346;12.150;2023-06-14T10:23:37;28.10;1.00
14277;DHT22;7222;57.346;12.150;2023-06-14T10:26:08;29.40;1.00
14277;DHT22;7222;57.346;12.150;2023-06-14T10:28:37;29.80;1.00
14277;DHT22;7222;57.346;12.150;2023-06-14T10:31:07;29.50;1.00
14277;DHT22;7222;57.346;12.150;2023-06-14T10:33:34;28.20;1.00
14277;DHT22;7222;57.346;12.150;2023-06-14T10:36:09;28.00;1.00
14277;DHT22;7222;57.346;12.150;2023-06-14T10:38:37;28.30;1.00
14277;DHT22;7222;57.346;12.150;2023-06-14T10:41:04;27.40;1.00
14277;DHT22;7222;57.346;12.150;2023-06-14T10:43:32;28.60;1.00
14277;DHT22;7222;57.346;12.150;2023-06-14T10:46:16;27.70;1.00
14277;DHT22;7222;57.346;12.150;2023-06-14T10:48:47;29.30;1.00
14277;DHT22;7222;57.346;12.150;2023-06-14T10:51:18;28.70;1.00
14277;DHT22;7222;57.346;12.150;2023-06-14T10:53:48;28.30;1.00
14277;DHT22;7222;57.346;12.150;2023-06-14T10:56:36;26.70;1.00
14277;DHT22;7222;57.346;12.150;2023-06-14T10:59:03;28.00;1.00
14277;DHT22;7222;57.346;12.150;2023-06-14T11:01:38;28.80;1.00
14277;DHT22;7222;57.346;12.150;2023-06-14T11:04:08;27.50;1.00
14277;DHT22;7222;57.346;12.150;2023-06-14T11:06:45;25.70;1.00
14277;DHT22;7222;57.346;12.150;2023-06-14T11:09:51;26.40;1.00
14277;DHT22;7222;57.346;12.150;2023-06-14T11:12:21;26.00;1.00
14277;DHT22;7222;57.346;12.150;2023-06-14T11:14:48;24.20;1.00
14277;DHT22;7222;57.346;12.150;2023-06-14T11:17:17;24.60;99.90
14277;DHT22;7222;57.346;12.150;2023-06-14T11:19:44;25.50;1.00
14277;DHT22;7222;57.346;12.150;2023-06-14T11:22:11;26.90;1.00
14277;DHT22;7222;57.346;12.150;2023-06-14T11:24:40;27.30;1.00
14277;DHT22;7222;57.346;12.150;2023-06-14T11:27:07;25.50;1.00
14277;DHT22;7222;57.346;12.150;2023-06-14T11:29:34;26.90;1.00
14277;DHT22;7222;57.346;12.150;2023-06-14T11:32:01;27.70;1.00
14277;DHT22;7222;57.346;12.150;2023-06-14T11:34:29;26.90;1.00
14277;DHT22;7222;57.346;12.150;2023-06-14T11:36:56;26.30;1.00
14277;DHT22;7222;57.346;12.150;2023-06-14T11:39:24;24.80;99.90
14277;DHT22;7222;57.346;12.150;2023-06-14T11:41:52;26.00;35.90
14277;DHT22;7222;57.346;12.150;2023-06-14T11:44:20;26.80;1.00
14277;DHT22;7222;57.346;12.150;2023-06-14T11:46:48;25.70;1.00
14277;DHT22;7222;57.346;12.150;2023-06-14T11:49:16;26.50;54.10
14277;DHT22;7222;57.346;12.150;2023-06-14T11:51:44;27.80;1.00
14277;DHT22;7222;57.346;12.150;2023-06-14T11:54:12;26.70;1.00
14277;DHT22;7222;57.346;12.150;2023-06-14T11:56:39;26.10;1.00
14277;DHT22;7222;57.346;12.150;2023-06-14T11:59:06;26.00;43.20
14277;DHT22;7222;57.346;12.150;2023-06-14T12:01:36;28.20;1.00
14277;DHT22;7222;57.346;12.150;2023-06-14T12:04:04;27.10;1.00
14277;DHT22;7222;57.346;12.150;2023-06-14T12:06:32;25.40;13.40
14277;DHT22;7222;57.346;12.150;2023-06-14T12:09:07;26.40;1.00
14277;DHT22;7222;57.346;12.150;2023-06-14T12:11:38;26.30;19.30
14277;DHT22;7222;57.346;12.150;2023-06-14T12:14:06;27.40;1.00
14277;DHT22;7222;57.346;12.150;2023-06-14T12:16:34;25.30;85.10
14277;DHT22;7222;57.346;12.150;2023-06-14T12:19:09;26.40;27.00
14277;DHT22;7222;57.346;12.150;2023-06-14T12:21:37;27.30;1.00
14277;DHT22;7222;57.346;12.150;2023-06-14T12:24:07;26.00;1.00
14277;DHT22;7222;57.346;12.150;2023-06-14T12:26:38;24.40;99.90
14277;DHT22;7222;57.346;12.150;2023-06-14T12:29:06;23.50;99.90
14277;DHT22;7222;57.346;12.150;2023-06-14T12:31:33;24.70;1.00
14277;DHT22;7222;57.346;12.150;2023-06-14T12:34:01;24.60;99.90
14277;DHT22;7222;57.346;12.150;2023-06-14T12:36:28;24.20;99.90
14277;DHT22;7222;57.346;12.150;2023-06-14T12:38:55;23.90;1.00
14277;DHT22;7222;57.346;12.150;2023-06-14T12:41:23;25.40;99.90
14277;DHT22;7222;57.346;12.150;2023-06-14T12:43:52;25.70;99.90
14277;DHT22;7222;57.346;12.150;2023-06-14T12:46:18;25.50;99.90
14277;DHT22;7222;57.346;12.150;2023-06-14T12:48:46;27.10;1.00
14277;DHT22;7222;57.346;12.150;2023-06-14T12:51:13;28.20;1.00
14277;DHT22;7222;57.346;12.150;2023-06-14T12:53:40;27.10;1.00
14277;DHT22;7222;57.346;12.150;2023-06-14T12:56:06;26.00;31.00
14277;DHT22;7222;57.346;12.150;2023-06-14T12:58:35;27.40;1.00
14277;DHT22;7222;57.346;12.150;2023-06-14T13:01:02;27.00;1.00
14277;DHT22;7222;57.346;12.150;2023-06-14T13:03:29;24.70;93.30
14277;DHT22;7222;57.346;12.150;2023-06-14T13:05:56;25.70;20.10
14277;DHT22;7222;57.346;12.150;2023-06-14T13:08:22;25.10;99.90
14277;DHT22;7222;57.346;12.150;2023-06-14T13:10:49;28.10;1.00
14277;DHT22;7222;57.346;12.150;2023-06-14T13:13:16;26.50;1.00
14277;DHT22;7222;57.346;12.150;2023-06-14T13:15:44;25.60;52.70
14277;DHT22;7222;57.346;12.150;2023-06-14T13:18:12;25.40;99.90
14277;DHT22;7222;57.346;12.150;2023-06-14T13:20:39;24.10;1.00
14277;DHT22;7222;57.346;12.150;2023-06-14T13:23:06;24.50;99.90
14277;DHT22;7222;57.346;12.150;2023-06-14T13:25:33;24.30;1.00
14277;DHT22;7222;57.346;12.150;2023-06-14T13:28:00;25.20;1.00
14277;DHT22;7222;57.346;12.150;2023-06-14T13:30:27;24.90;99.90
14277;DHT22;7222;57.346;12.150;2023-06-14T13:32:56;23.50;58.80
14277;DHT22;7222;57.346;12.150;2023-06-14T13:35:23;23.70;99.90
14277;DHT22;7222;57.346;12.150;2023-06-14T13:37:50;24.30;1.00
14277;DHT22;7222;57.346;12.150;2023-06-14T13:40:18;24.40;1.00
14277;DHT22;7222;57.346;12.150;2023-06-14T13:42:46;25.20;99.90
14277;DHT22;7222;57.346;12.150;2023-06-14T13:45:14;24.50;1.00
14277;DHT22;7222;57.346;12.150;2023-06-14T13:47:41;24.20;14.50
14277;DHT22;7222;57.346;12.150;2023-06-14T13:50:10;25.80;99.90
14277;DHT22;7222;57.346;12.150;2023-06-14T13:52:37;24.40;1.00
14277;DHT22;7222;57.346;12.150;2023-06-14T13:55:04;25.30;99.90
14277;DHT22;7222;57.346;12.150;2023-06-14T13:57:31;24.80;1.00
14277;DHT22;7222;57.346;12.150;2023-06-14T13:59:59;24.60;99.90
14277;DHT22;7222;57.346;12.150;2023-06-14T14:02:28;25.00;99.90
14277;DHT22;7222;57.346;12.150;2023-06-14T14:04:55;24.70;99.90
14277;DHT22;7222;57.346;12.150;2023-06-14T14:07:24;26.80;99.90
14277;DHT22;7222;57.346;12.150;2023-06-14T14:09:51;26.90;1.00
14277;DHT22;7222;57.346;12.150;2023-06-14T14:12:18;27.70;1.00
14277;DHT22;7222;57.346;12.150;2023-06-14T14:14:46;26.10;1.00
14277;DHT22;7222;57.346;12.150;2023-06-14T14:17:12;26.90;10.80
14277;DHT22;7222;57.346;12.150;2023-06-14T14:19:39;24.90;99.90
14277;DHT22;7222;57.346;12.150;2023-06-14T14:22:06;24.60;99.90
14277;DHT22;7222;57.346;12.150;2023-06-14T14:24:34;25.10;99.90
14277;DHT22;7222;57.346;12.150;2023-06-14T14:27:01;26.50;1.00
14277;DHT22;7222;57.346;12.150;2023-06-14T14:29:28;24.10;74.00
14277;DHT22;7222;57.346;12.150;2023-06-14T14:31:55;23.70;99.90
14277;DHT22;7222;57.346;12.150;2023-06-14T14:34:22;24.30;99.90
14277;DHT22;7222;57.346;12.150;2023-06-14T14:36:50;25.10;61.40
14277;DHT22;7222;57.346;12.150;2023-06-14T14:39:16;26.60;1.00
14277;DHT22;7222;57.346;12.150;2023-06-14T14:41:45;27.10;1.00
14277;DHT22;7222;57.346;12.150;2023-06-14T14:44:11;25.80;8.20
14277;DHT22;7222;57.346;12.150;2023-06-14T14:46:38;27.20;1.00
14277;DHT22;7222;57.346;12.150;2023-06-14T14:49:05;28.50;1.00
14277;DHT22;7222;57.346;12.150;2023-06-14T14:51:32;27.30;1.00
14277;DHT22;7222;57.346;12.150;2023-06-14T14:53:59;25.20;1.00
14277;DHT22;7222;57.346;12.150;2023-06-14T14:56:26;26.30;1.00
14277;DHT22;7222;57.346;12.150;2023-06-14T14:58:54;25.70;1.00
14277;DHT22;7222;57.346;12.150;2023-06-14T15:01:21;24.70;99.90
14277;DHT22;7222;57.346;12.150;2023-06-14T15:03:47;25.10;82.90
14277;DHT22;7222;57.346;12.150;2023-06-14T15:06:15;26.30;1.00
14277;DHT22;7222;57.346;12.150;2023-06-14T15:08:43;26.90;1.00
14277;DHT22;7222;57.346;12.150;2023-06-14T15:11:10;25.70;1.00
14277;DHT22;7222;57.346;12.150;2023-06-14T15:13:37;24.70;99.90
14277;DHT22;7222;57.346;12.150;2023-06-14T15:16:05;23.70;99.90
14277;DHT22;7222;57.346;12.150;2023-06-14T15:18:32;23.30;99.90
14277;DHT22;7222;57.346;12.150;2023-06-14T15:20:59;24.40;99.90
14277;DHT22;7222;57.346;12.150;2023-06-14T15:23:25;23.70;99.90
14277;DHT22;7222;57.346;12.150;2023-06-14T15:25:52;26.30;1.00
14277;DHT22;7222;57.346;12.150;2023-06-14T15:28:19;25.40;1.00
14277;DHT22;7222;57.346;12.150;2023-06-14T15:30:47;26.20;1.00
14277;DHT22;7222;57.346;12.150;2023-06-14T15:33:15;26.40;1.00
14277;DHT22;7222;57.346;12.150;2023-06-14T15:35:42;27.40;1.00
14277;DHT22;7222;57.346;12.150;2023-06-14T15:38:09;27.00;1.00
14277;DHT22;7222;57.346;12.150;2023-06-14T15:40:36;27.70;1.00
14277;DHT22;7222;57.346;12.150;2023-06-14T15:43:03;28.20;1.00